PWSweather.com
Personal Weather Stations
Station Observations
BREEJEDURP
'sGravenzande, WestlandNL

'sGravenzandeWestlandNL

Lat: 52.00095260000001, Lon: 4.174256600000035

Elevation: 3

Station Type: Davis Vantage Pro2 Plus

www.breejedurp.nl

High Low Average
Temperature 48.7°F9.3°C 43.2°F6.2°C 44.5°F6.9°C
Dew Point 47.5°F8.6°C 38.9°F3.8°C 41.7°F5.4°C
Winds 18.0 mph 29.0 kmh 3.0 mph 4.8 kmh 9.0 mph SW14.5 kmh SW
Wind Gusts 26.0 mph41.8 kmh 5.0 mph8.0 kmh 14.0 mph22.5 kmh
Humidity 96% 82% 90%
Pressure 29.86 in1011.2 mb 29.38 in994.9 mb -
Precipitation 0.26 in6.6 mm - -
Hour Temp Dew Point Humidity Winds Wind Gusts Pressure Precip Precip Rate Daily Precip Total
12:04 AM 44.2°F6.8°C 41.2°F5.1°C 89% 7.0 mph W11.3 kmh W 11.0 mph17.7 kmh 29.58 in1001.7 mb 0.00 in0.0 mm 0.00 in0.0 mm 0.00 in0.0 mm
12:09 AM 44.4°F6.9°C 41.4°F5.2°C 89% 4.0 mph W6.4 kmh W 7.0 mph11.3 kmh 29.58 in1001.7 mb 0.00 in0.0 mm 0.00 in0.0 mm 0.00 in0.0 mm
12:14 AM 44.4°F6.9°C 41.4°F5.2°C 89% 4.0 mph WSW6.4 kmh WSW 6.0 mph9.7 kmh 29.58 in1001.7 mb 0.00 in0.0 mm 0.00 in0.0 mm 0.00 in0.0 mm
12:19 AM 44.4°F6.9°C 41.4°F5.2°C 89% 6.0 mph W9.7 kmh W 9.0 mph14.5 kmh 29.58 in1001.7 mb 0.00 in0.0 mm 0.00 in0.0 mm 0.00 in0.0 mm
12:24 AM 44.4°F6.9°C 41.7°F5.4°C 90% 7.0 mph W11.3 kmh W 10.0 mph16.1 kmh 29.58 in1001.7 mb 0.00 in0.0 mm 0.00 in0.0 mm 0.00 in0.0 mm
12:29 AM 44.4°F6.9°C 41.7°F5.4°C 90% 12.0 mph W19.3 kmh W 17.0 mph27.4 kmh 29.58 in1001.7 mb 0.00 in0.0 mm 0.00 in0.0 mm 0.00 in0.0 mm
12:34 AM 44.4°F6.9°C 41.7°F5.4°C 90% 10.0 mph W16.1 kmh W 14.0 mph22.5 kmh 29.58 in1001.7 mb 0.00 in0.0 mm 0.00 in0.0 mm 0.00 in0.0 mm
12:39 AM 44.4°F6.9°C 41.4°F5.2°C 89% 10.0 mph WSW16.1 kmh WSW 14.0 mph22.5 kmh 29.59 in1002.0 mb 0.00 in0.0 mm 0.00 in0.0 mm 0.00 in0.0 mm
12:44 AM 44.2°F6.8°C 41.2°F5.1°C 89% 11.0 mph W17.7 kmh W 14.0 mph22.5 kmh 29.59 in1002.0 mb 0.00 in0.0 mm 0.00 in0.0 mm 0.00 in0.0 mm
12:49 AM 43.9°F6.6°C 41.1°F5.1°C 90% 12.0 mph W19.3 kmh W 19.0 mph30.6 kmh 29.59 in1002.0 mb 0.00 in0.0 mm 0.00 in0.0 mm 0.00 in0.0 mm
12:54 AM 43.5°F6.4°C 41.1°F5.1°C 91% 9.0 mph W14.5 kmh W 14.0 mph22.5 kmh 29.59 in1002.0 mb 0.00 in0.0 mm 0.00 in0.0 mm 0.02 in0.5 mm
12:59 AM 43.5°F6.4°C 41.4°F5.2°C 92% 9.0 mph W14.5 kmh W 12.0 mph19.3 kmh 29.59 in1002.0 mb 0.00 in0.0 mm 0.00 in0.0 mm 0.02 in0.5 mm
01:04 AM 43.5°F6.4°C 41.6°F5.3°C 93% 8.0 mph W12.9 kmh W 11.0 mph17.7 kmh 29.60 in1002.4 mb 0.00 in0.0 mm 0.00 in0.0 mm 0.02 in0.5 mm
01:09 AM 43.5°F6.4°C 41.6°F5.3°C 93% 6.0 mph W9.7 kmh W 10.0 mph16.1 kmh 29.60 in1002.4 mb 0.00 in0.0 mm 0.00 in0.0 mm 0.02 in0.5 mm
01:14 AM 43.5°F6.4°C 41.6°F5.3°C 93% 7.0 mph WSW11.3 kmh WSW 9.0 mph14.5 kmh 29.60 in1002.4 mb 0.00 in0.0 mm 0.00 in0.0 mm 0.02 in0.5 mm
01:19 AM 43.5°F6.4°C 41.6°F5.3°C 93% 12.0 mph W19.3 kmh W 18.0 mph29.0 kmh 29.60 in1002.4 mb 0.00 in0.0 mm 0.00 in0.0 mm 0.02 in0.5 mm
01:24 AM 43.5°F6.4°C 41.6°F5.3°C 93% 6.0 mph W9.7 kmh W 10.0 mph16.1 kmh 29.60 in1002.4 mb 0.00 in0.0 mm 0.00 in0.0 mm 0.02 in0.5 mm
01:29 AM 43.5°F6.4°C 41.9°F5.5°C 94% 7.0 mph W11.3 kmh W 11.0 mph17.7 kmh 29.60 in1002.4 mb 0.00 in0.0 mm 0.00 in0.0 mm 0.02 in0.5 mm
01:34 AM 43.7°F6.5°C 42.1°F5.6°C 94% 8.0 mph WNW12.9 kmh WNW 10.0 mph16.1 kmh 29.60 in1002.4 mb 0.00 in0.0 mm 0.00 in0.0 mm 0.03 in0.8 mm
01:39 AM 43.7°F6.5°C 42.1°F5.6°C 94% 7.0 mph WNW11.3 kmh WNW 10.0 mph16.1 kmh 29.61 in1002.7 mb 0.00 in0.0 mm 0.00 in0.0 mm 0.03 in0.8 mm
01:44 AM 43.7°F6.5°C 42.1°F5.6°C 94% 7.0 mph WNW11.3 kmh WNW 13.0 mph20.9 kmh 29.61 in1002.7 mb 0.00 in0.0 mm 0.00 in0.0 mm 0.03 in0.8 mm
01:49 AM 43.7°F6.5°C 42.1°F5.6°C 94% 5.0 mph WNW8.0 kmh WNW 8.0 mph12.9 kmh 29.62 in1003.0 mb 0.00 in0.0 mm 0.00 in0.0 mm 0.03 in0.8 mm
01:54 AM 43.5°F6.4°C 41.9°F5.5°C 94% 5.0 mph NW8.0 kmh NW 10.0 mph16.1 kmh 29.62 in1003.0 mb 0.00 in0.0 mm 0.00 in0.0 mm 0.03 in0.8 mm
01:59 AM 43.5°F6.4°C 42.2°F5.7°C 95% 5.0 mph WNW8.0 kmh WNW 8.0 mph12.9 kmh 29.62 in1003.0 mb 0.00 in0.0 mm 0.00 in0.0 mm 0.03 in0.8 mm
02:04 AM 43.5°F6.4°C 42.2°F5.7°C 95% 7.0 mph WNW11.3 kmh WNW 11.0 mph17.7 kmh 29.62 in1003.0 mb 0.00 in0.0 mm 0.00 in0.0 mm 0.03 in0.8 mm
02:09 AM 43.9°F6.6°C 42.5°F5.8°C 95% 8.0 mph W12.9 kmh W 11.0 mph17.7 kmh 29.62 in1003.0 mb 0.00 in0.0 mm 0.00 in0.0 mm 0.03 in0.8 mm
02:14 AM 43.9°F6.6°C 42.3°F5.7°C 94% 9.0 mph W14.5 kmh W 12.0 mph19.3 kmh 29.63 in1003.4 mb 0.00 in0.0 mm 0.00 in0.0 mm 0.03 in0.8 mm
02:19 AM 43.9°F6.6°C 42.3°F5.7°C 94% 7.0 mph WNW11.3 kmh WNW 9.0 mph14.5 kmh 29.63 in1003.4 mb 0.00 in0.0 mm 0.00 in0.0 mm 0.03 in0.8 mm
02:24 AM 43.9°F6.6°C 42.3°F5.7°C 94% 9.0 mph W14.5 kmh W 11.0 mph17.7 kmh 29.63 in1003.4 mb 0.00 in0.0 mm 0.00 in0.0 mm 0.03 in0.8 mm
02:29 AM 44.1°F6.7°C 42.2°F5.7°C 93% 7.0 mph W11.3 kmh W 10.0 mph16.1 kmh 29.64 in1003.7 mb 0.00 in0.0 mm 0.00 in0.0 mm 0.03 in0.8 mm
02:34 AM 44.1°F6.7°C 42.2°F5.7°C 93% 8.0 mph W12.9 kmh W 13.0 mph20.9 kmh 29.64 in1003.7 mb 0.00 in0.0 mm 0.00 in0.0 mm 0.03 in0.8 mm
02:39 AM 44.2°F6.8°C 42.3°F5.7°C 93% 10.0 mph NW16.1 kmh NW 13.0 mph20.9 kmh 29.65 in1004.1 mb 0.00 in0.0 mm 0.00 in0.0 mm 0.03 in0.8 mm
02:44 AM 44.1°F6.7°C 42.2°F5.7°C 93% 11.0 mph WNW17.7 kmh WNW 15.0 mph24.1 kmh 29.65 in1004.1 mb 0.00 in0.0 mm 0.00 in0.0 mm 0.03 in0.8 mm
02:49 AM 44.1°F6.7°C 42.2°F5.7°C 93% 9.0 mph NW14.5 kmh NW 15.0 mph24.1 kmh 29.65 in1004.1 mb 0.00 in0.0 mm 0.00 in0.0 mm 0.03 in0.8 mm
02:54 AM 44.1°F6.7°C 42.2°F5.7°C 93% 11.0 mph WNW17.7 kmh WNW 16.0 mph25.7 kmh 29.66 in1004.4 mb 0.00 in0.0 mm 0.00 in0.0 mm 0.03 in0.8 mm
02:59 AM 44.1°F6.7°C 42.2°F5.7°C 93% 10.0 mph NW16.1 kmh NW 14.0 mph22.5 kmh 29.66 in1004.4 mb 0.00 in0.0 mm 0.00 in0.0 mm 0.03 in0.8 mm
03:04 AM 44.2°F6.8°C 42.3°F5.7°C 93% 9.0 mph WNW14.5 kmh WNW 15.0 mph24.1 kmh 29.66 in1004.4 mb 0.00 in0.0 mm 0.00 in0.0 mm 0.03 in0.8 mm
03:09 AM 44.2°F6.8°C 42.3°F5.7°C 93% 10.0 mph WNW16.1 kmh WNW 14.0 mph22.5 kmh 29.67 in1004.7 mb 0.00 in0.0 mm 0.00 in0.0 mm 0.03 in0.8 mm
03:14 AM 44.2°F6.8°C 42.1°F5.6°C 92% 11.0 mph WNW17.7 kmh WNW 14.0 mph22.5 kmh 29.67 in1004.7 mb 0.00 in0.0 mm 0.00 in0.0 mm 0.03 in0.8 mm
03:19 AM 44.2°F6.8°C 42.1°F5.6°C 92% 9.0 mph WNW14.5 kmh WNW 13.0 mph20.9 kmh 29.67 in1004.7 mb 0.00 in0.0 mm 0.00 in0.0 mm 0.03 in0.8 mm
03:24 AM 44.4°F6.9°C 42.0°F5.6°C 91% 16.0 mph WNW25.7 kmh WNW 23.0 mph37.0 kmh 29.67 in1004.7 mb 0.00 in0.0 mm 0.00 in0.0 mm 0.03 in0.8 mm
03:29 AM 43.9°F6.6°C 41.4°F5.2°C 91% 13.0 mph WNW20.9 kmh WNW 21.0 mph33.8 kmh 29.67 in1004.7 mb 0.00 in0.0 mm 0.00 in0.0 mm 0.04 in1.0 mm
03:34 AM 43.5°F6.4°C 41.1°F5.1°C 91% 13.0 mph WNW20.9 kmh WNW 19.0 mph30.6 kmh 29.68 in1005.1 mb 0.01 in0.3 mm 0.10 in2.5 mm 0.06 in1.5 mm
03:39 AM 43.2°F6.2°C 41.0°F5.0°C 92% 13.0 mph NW20.9 kmh NW 21.0 mph33.8 kmh 29.68 in1005.1 mb 0.01 in0.3 mm 0.00 in0.0 mm 0.08 in2.0 mm
03:44 AM 43.2°F6.2°C 41.0°F5.0°C 92% 10.0 mph NW16.1 kmh NW 15.0 mph24.1 kmh 29.68 in1005.1 mb 0.00 in0.0 mm 0.00 in0.0 mm 0.08 in2.0 mm
03:49 AM 43.7°F6.5°C 41.8°F5.4°C 93% 11.0 mph WNW17.7 kmh WNW 17.0 mph27.4 kmh 29.69 in1005.4 mb 0.00 in0.0 mm 0.00 in0.0 mm 0.09 in2.3 mm
03:54 AM 43.9°F6.6°C 42.0°F5.6°C 93% 13.0 mph WNW20.9 kmh WNW 20.0 mph32.2 kmh 29.69 in1005.4 mb 0.00 in0.0 mm 0.00 in0.0 mm 0.09 in2.3 mm
03:59 AM 44.1°F6.7°C 42.2°F5.7°C 93% 18.0 mph WNW29.0 kmh WNW 26.0 mph41.8 kmh 29.69 in1005.4 mb 0.00 in0.0 mm 0.00 in0.0 mm 0.09 in2.3 mm
04:04 AM 44.2°F6.8°C 42.1°F5.6°C 92% 14.0 mph WNW22.5 kmh WNW 22.0 mph35.4 kmh 29.70 in1005.8 mb 0.00 in0.0 mm 0.00 in0.0 mm 0.09 in2.3 mm
04:09 AM 44.1°F6.7°C 41.9°F5.5°C 92% 14.0 mph WNW22.5 kmh WNW 23.0 mph37.0 kmh 29.70 in1005.8 mb 0.00 in0.0 mm 0.00 in0.0 mm 0.09 in2.3 mm
04:14 AM 44.1°F6.7°C 41.9°F5.5°C 92% 16.0 mph WNW25.7 kmh WNW 24.0 mph38.6 kmh 29.70 in1005.8 mb 0.00 in0.0 mm 0.00 in0.0 mm 0.09 in2.3 mm
04:19 AM 44.1°F6.7°C 41.6°F5.3°C 91% 18.0 mph WNW29.0 kmh WNW 22.0 mph35.4 kmh 29.70 in1005.8 mb 0.00 in0.0 mm 0.00 in0.0 mm 0.09 in2.3 mm
04:24 AM 44.2°F6.8°C 41.8°F5.4°C 91% 18.0 mph WNW29.0 kmh WNW 23.0 mph37.0 kmh 29.71 in1006.1 mb 0.00 in0.0 mm 0.00 in0.0 mm 0.09 in2.3 mm
04:29 AM 44.2°F6.8°C 41.8°F5.4°C 91% 13.0 mph NW20.9 kmh NW 19.0 mph30.6 kmh 29.71 in1006.1 mb 0.00 in0.0 mm 0.00 in0.0 mm 0.09 in2.3 mm
04:34 AM 44.2°F6.8°C 41.8°F5.4°C 91% 17.0 mph W27.4 kmh W 24.0 mph38.6 kmh 29.71 in1006.1 mb 0.00 in0.0 mm 0.00 in0.0 mm 0.09 in2.3 mm
04:39 AM 44.2°F6.8°C 41.5°F5.3°C 90% 13.0 mph W20.9 kmh W 26.0 mph41.8 kmh 29.71 in1006.1 mb 0.00 in0.0 mm 0.00 in0.0 mm 0.09 in2.3 mm
04:44 AM 44.1°F6.7°C 41.3°F5.2°C 90% 18.0 mph WNW29.0 kmh WNW 25.0 mph40.2 kmh 29.72 in1006.4 mb 0.00 in0.0 mm 0.00 in0.0 mm 0.09 in2.3 mm
04:49 AM 44.1°F6.7°C 41.0°F5.0°C 89% 13.0 mph NW20.9 kmh NW 18.0 mph29.0 kmh 29.72 in1006.4 mb 0.00 in0.0 mm 0.00 in0.0 mm 0.09 in2.3 mm
04:54 AM 44.1°F6.7°C 41.0°F5.0°C 89% 14.0 mph WNW22.5 kmh WNW 21.0 mph33.8 kmh 29.72 in1006.4 mb 0.00 in0.0 mm 0.00 in0.0 mm 0.09 in2.3 mm
04:59 AM 43.9°F6.6°C 40.9°F4.9°C 89% 16.0 mph WNW25.7 kmh WNW 23.0 mph37.0 kmh 29.72 in1006.4 mb 0.00 in0.0 mm 0.00 in0.0 mm 0.09 in2.3 mm
05:04 AM 43.9°F6.6°C 40.6°F4.8°C 88% 15.0 mph WNW24.1 kmh WNW 24.0 mph38.6 kmh 29.73 in1006.8 mb 0.00 in0.0 mm 0.00 in0.0 mm 0.09 in2.3 mm
05:09 AM 43.9°F6.6°C 40.9°F4.9°C 89% 11.0 mph WNW17.7 kmh WNW 16.0 mph25.7 kmh 29.73 in1006.8 mb 0.00 in0.0 mm 0.00 in0.0 mm 0.09 in2.3 mm
05:14 AM 43.9°F6.6°C 40.9°F4.9°C 89% 13.0 mph WNW20.9 kmh WNW 19.0 mph30.6 kmh 29.74 in1007.1 mb 0.00 in0.0 mm 0.00 in0.0 mm 0.09 in2.3 mm
05:19 AM 43.7°F6.5°C 40.7°F4.8°C 89% 15.0 mph W24.1 kmh W 26.0 mph41.8 kmh 29.74 in1007.1 mb 0.00 in0.0 mm 0.00 in0.0 mm 0.09 in2.3 mm
05:24 AM 43.9°F6.6°C 40.6°F4.8°C 88% 14.0 mph NW22.5 kmh NW 22.0 mph35.4 kmh 29.74 in1007.1 mb 0.00 in0.0 mm 0.00 in0.0 mm 0.09 in2.3 mm
05:29 AM 43.7°F6.5°C 40.1°F4.5°C 87% 14.0 mph WNW22.5 kmh WNW 20.0 mph32.2 kmh 29.74 in1007.1 mb 0.00 in0.0 mm 0.00 in0.0 mm 0.09 in2.3 mm
05:34 AM 43.7°F6.5°C 40.1°F4.5°C 87% 13.0 mph W20.9 kmh W 18.0 mph29.0 kmh 29.74 in1007.1 mb 0.00 in0.0 mm 0.00 in0.0 mm 0.09 in2.3 mm
05:39 AM 43.9°F6.6°C 40.3°F4.6°C 87% 15.0 mph WNW24.1 kmh WNW 25.0 mph40.2 kmh 29.75 in1007.5 mb 0.00 in0.0 mm 0.00 in0.0 mm 0.09 in2.3 mm
05:44 AM 43.9°F6.6°C 40.3°F4.6°C 87% 14.0 mph WNW22.5 kmh WNW 21.0 mph33.8 kmh 29.75 in1007.5 mb 0.00 in0.0 mm 0.00 in0.0 mm 0.09 in2.3 mm
05:49 AM 43.7°F6.5°C 40.1°F4.5°C 87% 12.0 mph WNW19.3 kmh WNW 18.0 mph29.0 kmh 29.76 in1007.8 mb 0.00 in0.0 mm 0.00 in0.0 mm 0.09 in2.3 mm
05:54 AM 43.9°F6.6°C 40.3°F4.6°C 87% 12.0 mph W19.3 kmh W 16.0 mph25.7 kmh 29.76 in1007.8 mb 0.00 in0.0 mm 0.00 in0.0 mm 0.09 in2.3 mm
05:59 AM 43.9°F6.6°C 40.0°F4.4°C 86% 12.0 mph W19.3 kmh W 16.0 mph25.7 kmh 29.76 in1007.8 mb 0.00 in0.0 mm 0.00 in0.0 mm 0.09 in2.3 mm
06:04 AM 43.9°F6.6°C 40.0°F4.4°C 86% 12.0 mph WNW19.3 kmh WNW 16.0 mph25.7 kmh 29.76 in1007.8 mb 0.00 in0.0 mm 0.00 in0.0 mm 0.09 in2.3 mm
06:09 AM 43.9°F6.6°C 40.0°F4.4°C 86% 13.0 mph WNW20.9 kmh WNW 18.0 mph29.0 kmh 29.77 in1008.1 mb 0.00 in0.0 mm 0.00 in0.0 mm 0.09 in2.3 mm
06:14 AM 43.9°F6.6°C 39.4°F4.1°C 84% 12.0 mph NW19.3 kmh NW 17.0 mph27.4 kmh 29.77 in1008.1 mb 0.00 in0.0 mm 0.00 in0.0 mm 0.09 in2.3 mm
06:19 AM 43.9°F6.6°C 39.1°F3.9°C 83% 11.0 mph WNW17.7 kmh WNW 18.0 mph29.0 kmh 29.77 in1008.1 mb 0.00 in0.0 mm 0.00 in0.0 mm 0.09 in2.3 mm
06:24 AM 43.9°F6.6°C 39.4°F4.1°C 84% 10.0 mph W16.1 kmh W 18.0 mph29.0 kmh 29.77 in1008.1 mb 0.00 in0.0 mm 0.00 in0.0 mm 0.09 in2.3 mm
06:29 AM 43.9°F6.6°C 39.1°F3.9°C 83% 13.0 mph WNW20.9 kmh WNW 18.0 mph29.0 kmh 29.77 in1008.1 mb 0.00 in0.0 mm 0.00 in0.0 mm 0.09 in2.3 mm
06:34 AM 44.1°F6.7°C 38.9°F3.8°C 82% 14.0 mph WNW22.5 kmh WNW 21.0 mph33.8 kmh 29.78 in1008.5 mb 0.00 in0.0 mm 0.00 in0.0 mm 0.09 in2.3 mm
06:39 AM 44.1°F6.7°C 39.2°F4.0°C 83% 11.0 mph WNW17.7 kmh WNW 19.0 mph30.6 kmh 29.78 in1008.5 mb 0.00 in0.0 mm 0.00 in0.0 mm 0.09 in2.3 mm
06:44 AM 44.1°F6.7°C 39.2°F4.0°C 83% 11.0 mph W17.7 kmh W 16.0 mph25.7 kmh 29.78 in1008.5 mb 0.00 in0.0 mm 0.00 in0.0 mm 0.09 in2.3 mm
06:49 AM 43.9°F6.6°C 39.1°F3.9°C 83% 10.0 mph WNW16.1 kmh WNW 17.0 mph27.4 kmh 29.78 in1008.5 mb 0.00 in0.0 mm 0.00 in0.0 mm 0.09 in2.3 mm
06:54 AM 43.9°F6.6°C 39.4°F4.1°C 84% 15.0 mph WNW24.1 kmh WNW 21.0 mph33.8 kmh 29.78 in1008.5 mb 0.00 in0.0 mm 0.00 in0.0 mm 0.09 in2.3 mm
06:59 AM 44.1°F6.7°C 39.5°F4.2°C 84% 11.0 mph W17.7 kmh W 18.0 mph29.0 kmh 29.78 in1008.5 mb 0.00 in0.0 mm 0.00 in0.0 mm 0.09 in2.3 mm
07:04 AM 44.1°F6.7°C 39.5°F4.2°C 84% 12.0 mph WNW19.3 kmh WNW 15.0 mph24.1 kmh 29.78 in1008.5 mb 0.00 in0.0 mm 0.00 in0.0 mm 0.09 in2.3 mm
07:09 AM 43.9°F6.6°C 39.7°F4.3°C 85% 11.0 mph WNW17.7 kmh WNW 16.0 mph25.7 kmh 29.78 in1008.5 mb 0.00 in0.0 mm 0.00 in0.0 mm 0.09 in2.3 mm
07:14 AM 43.9°F6.6°C 39.4°F4.1°C 84% 10.0 mph WNW16.1 kmh WNW 15.0 mph24.1 kmh 29.79 in1008.8 mb 0.00 in0.0 mm 0.00 in0.0 mm 0.09 in2.3 mm
07:19 AM 43.9°F6.6°C 39.7°F4.3°C 85% 9.0 mph WNW14.5 kmh WNW 11.0 mph17.7 kmh 29.79 in1008.8 mb 0.00 in0.0 mm 0.00 in0.0 mm 0.09 in2.3 mm
07:24 AM 43.9°F6.6°C 40.0°F4.4°C 86% 6.0 mph W9.7 kmh W 9.0 mph14.5 kmh 29.79 in1008.8 mb 0.00 in0.0 mm 0.00 in0.0 mm 0.09 in2.3 mm
07:29 AM 44.1°F6.7°C 40.1°F4.5°C 86% 10.0 mph W16.1 kmh W 15.0 mph24.1 kmh 29.79 in1008.8 mb 0.00 in0.0 mm 0.00 in0.0 mm 0.09 in2.3 mm
07:34 AM 44.1°F6.7°C 40.1°F4.5°C 86% 10.0 mph W16.1 kmh W 13.0 mph20.9 kmh 29.79 in1008.8 mb 0.00 in0.0 mm 0.00 in0.0 mm 0.09 in2.3 mm
07:39 AM 44.1°F6.7°C 40.1°F4.5°C 86% 9.0 mph W14.5 kmh W 12.0 mph19.3 kmh 29.80 in1009.1 mb 0.00 in0.0 mm 0.00 in0.0 mm 0.09 in2.3 mm
07:44 AM 43.9°F6.6°C 40.3°F4.6°C 87% 7.0 mph W11.3 kmh W 12.0 mph19.3 kmh 29.80 in1009.1 mb 0.00 in0.0 mm 0.00 in0.0 mm 0.09 in2.3 mm
07:49 AM 43.9°F6.6°C 40.3°F4.6°C 87% 7.0 mph W11.3 kmh W 11.0 mph17.7 kmh 29.80 in1009.1 mb 0.00 in0.0 mm 0.00 in0.0 mm 0.09 in2.3 mm
07:54 AM 43.9°F6.6°C 40.0°F4.4°C 86% 11.0 mph W17.7 kmh W 16.0 mph25.7 kmh 29.81 in1009.5 mb 0.00 in0.0 mm 0.00 in0.0 mm 0.09 in2.3 mm
07:59 AM 43.9°F6.6°C 40.0°F4.4°C 86% 9.0 mph W14.5 kmh W 12.0 mph19.3 kmh 29.81 in1009.5 mb 0.00 in0.0 mm 0.00 in0.0 mm 0.09 in2.3 mm
08:04 AM 43.9°F6.6°C 40.0°F4.4°C 86% 9.0 mph W14.5 kmh W 12.0 mph19.3 kmh 29.81 in1009.5 mb 0.00 in0.0 mm 0.00 in0.0 mm 0.09 in2.3 mm
08:09 AM 43.9°F6.6°C 40.3°F4.6°C 87% 8.0 mph W12.9 kmh W 11.0 mph17.7 kmh 29.82 in1009.8 mb 0.00 in0.0 mm 0.00 in0.0 mm 0.09 in2.3 mm
08:14 AM 44.1°F6.7°C 40.4°F4.7°C 87% 10.0 mph W16.1 kmh W 13.0 mph20.9 kmh 29.82 in1009.8 mb 0.00 in0.0 mm 0.00 in0.0 mm 0.09 in2.3 mm
08:19 AM 44.1°F6.7°C 40.4°F4.7°C 87% 9.0 mph WSW14.5 kmh WSW 12.0 mph19.3 kmh 29.82 in1009.8 mb 0.00 in0.0 mm 0.00 in0.0 mm 0.09 in2.3 mm
08:24 AM 44.1°F6.7°C 40.7°F4.8°C 88% 11.0 mph W17.7 kmh W 17.0 mph27.4 kmh 29.82 in1009.8 mb 0.00 in0.0 mm 0.00 in0.0 mm 0.09 in2.3 mm
08:29 AM 44.1°F6.7°C 40.7°F4.8°C 88% 13.0 mph W20.9 kmh W 18.0 mph29.0 kmh 29.83 in1010.2 mb 0.00 in0.0 mm 0.00 in0.0 mm 0.09 in2.3 mm
08:34 AM 44.1°F6.7°C 40.7°F4.8°C 88% 12.0 mph W19.3 kmh W 15.0 mph24.1 kmh 29.83 in1010.2 mb 0.00 in0.0 mm 0.00 in0.0 mm 0.09 in2.3 mm
08:39 AM 44.1°F6.7°C 40.7°F4.8°C 88% 12.0 mph WSW19.3 kmh WSW 15.0 mph24.1 kmh 29.83 in1010.2 mb 0.00 in0.0 mm 0.00 in0.0 mm 0.09 in2.3 mm
08:44 AM 44.1°F6.7°C 40.7°F4.8°C 88% 10.0 mph WSW16.1 kmh WSW 13.0 mph20.9 kmh 29.83 in1010.2 mb 0.00 in0.0 mm 0.00 in0.0 mm 0.09 in2.3 mm
08:49 AM 44.1°F6.7°C 40.7°F4.8°C 88% 11.0 mph WSW17.7 kmh WSW 22.0 mph35.4 kmh 29.83 in1010.2 mb 0.00 in0.0 mm 0.00 in0.0 mm 0.09 in2.3 mm
08:54 AM 44.1°F6.7°C 40.7°F4.8°C 88% 8.0 mph WSW12.9 kmh WSW 12.0 mph19.3 kmh 29.83 in1010.2 mb 0.00 in0.0 mm 0.00 in0.0 mm 0.09 in2.3 mm
08:59 AM 44.1°F6.7°C 40.7°F4.8°C 88% 12.0 mph W19.3 kmh W 17.0 mph27.4 kmh 29.84 in1010.5 mb 0.00 in0.0 mm 0.00 in0.0 mm 0.09 in2.3 mm
09:04 AM 44.1°F6.7°C 40.7°F4.8°C 88% 9.0 mph W14.5 kmh W 14.0 mph22.5 kmh 29.84 in1010.5 mb 0.00 in0.0 mm 0.00 in0.0 mm 0.09 in2.3 mm
09:09 AM 44.1°F6.7°C 40.7°F4.8°C 88% 10.0 mph W16.1 kmh W 14.0 mph22.5 kmh 29.84 in1010.5 mb 0.00 in0.0 mm 0.00 in0.0 mm 0.09 in2.3 mm
09:14 AM 44.1°F6.7°C 40.7°F4.8°C 88% 11.0 mph W17.7 kmh W 15.0 mph24.1 kmh 29.84 in1010.5 mb 0.00 in0.0 mm 0.00 in0.0 mm 0.09 in2.3 mm
09:19 AM 44.1°F6.7°C 40.7°F4.8°C 88% 10.0 mph W16.1 kmh W 14.0 mph22.5 kmh 29.84 in1010.5 mb 0.00 in0.0 mm 0.00 in0.0 mm 0.09 in2.3 mm
09:24 AM 44.1°F6.7°C 40.7°F4.8°C 88% 10.0 mph W16.1 kmh W 17.0 mph27.4 kmh 29.84 in1010.5 mb 0.00 in0.0 mm 0.00 in0.0 mm 0.09 in2.3 mm
09:29 AM 44.1°F6.7°C 40.7°F4.8°C 88% 13.0 mph W20.9 kmh W 16.0 mph25.7 kmh 29.84 in1010.5 mb 0.00 in0.0 mm 0.00 in0.0 mm 0.09 in2.3 mm
09:34 AM 44.1°F6.7°C 40.7°F4.8°C 88% 10.0 mph W16.1 kmh W 15.0 mph24.1 kmh 29.84 in1010.5 mb 0.00 in0.0 mm 0.00 in0.0 mm 0.09 in2.3 mm
09:39 AM 44.1°F6.7°C 40.7°F4.8°C 88% 10.0 mph W16.1 kmh W 14.0 mph22.5 kmh 29.84 in1010.5 mb 0.00 in0.0 mm 0.00 in0.0 mm 0.09 in2.3 mm
09:44 AM 44.1°F6.7°C 40.4°F4.7°C 87% 11.0 mph WSW17.7 kmh WSW 16.0 mph25.7 kmh 29.84 in1010.5 mb 0.00 in0.0 mm 0.00 in0.0 mm 0.09 in2.3 mm
09:49 AM 43.9°F6.6°C 40.3°F4.6°C 87% 9.0 mph W14.5 kmh W 12.0 mph19.3 kmh 29.84 in1010.5 mb 0.00 in0.0 mm 0.00 in0.0 mm 0.09 in2.3 mm
09:54 AM 43.9°F6.6°C 40.3°F4.6°C 87% 10.0 mph W16.1 kmh W 13.0 mph20.9 kmh 29.83 in1010.2 mb 0.00 in0.0 mm 0.00 in0.0 mm 0.09 in2.3 mm
09:59 AM 43.9°F6.6°C 40.3°F4.6°C 87% 7.0 mph W11.3 kmh W 10.0 mph16.1 kmh 29.84 in1010.5 mb 0.00 in0.0 mm 0.00 in0.0 mm 0.09 in2.3 mm
10:04 AM 43.7°F6.5°C 40.4°F4.7°C 88% 9.0 mph WSW14.5 kmh WSW 11.0 mph17.7 kmh 29.84 in1010.5 mb 0.00 in0.0 mm 0.00 in0.0 mm 0.09 in2.3 mm
10:09 AM 43.7°F6.5°C 40.1°F4.5°C 87% 9.0 mph WSW14.5 kmh WSW 15.0 mph24.1 kmh 29.85 in1010.8 mb 0.00 in0.0 mm 0.00 in0.0 mm 0.09 in2.3 mm
10:14 AM 43.7°F6.5°C 40.4°F4.7°C 88% 10.0 mph WSW16.1 kmh WSW 13.0 mph20.9 kmh 29.85 in1010.8 mb 0.00 in0.0 mm 0.00 in0.0 mm 0.09 in2.3 mm
10:19 AM 43.7°F6.5°C 40.4°F4.7°C 88% 5.0 mph W8.0 kmh W 7.0 mph11.3 kmh 29.85 in1010.8 mb 0.00 in0.0 mm 0.00 in0.0 mm 0.09 in2.3 mm
10:24 AM 43.9°F6.6°C 40.3°F4.6°C 87% 10.0 mph WSW16.1 kmh WSW 14.0 mph22.5 kmh 29.85 in1010.8 mb 0.00 in0.0 mm 0.00 in0.0 mm 0.09 in2.3 mm
10:29 AM 43.9°F6.6°C 40.3°F4.6°C 87% 10.0 mph W16.1 kmh W 13.0 mph20.9 kmh 29.85 in1010.8 mb 0.00 in0.0 mm 0.00 in0.0 mm 0.09 in2.3 mm
10:34 AM 43.9°F6.6°C 40.3°F4.6°C 87% 6.0 mph WSW9.7 kmh WSW 9.0 mph14.5 kmh 29.85 in1010.8 mb 0.00 in0.0 mm 0.00 in0.0 mm 0.09 in2.3 mm
10:39 AM 43.9°F6.6°C 40.3°F4.6°C 87% 7.0 mph SW11.3 kmh SW 11.0 mph17.7 kmh 29.85 in1010.8 mb 0.00 in0.0 mm 0.00 in0.0 mm 0.09 in2.3 mm
10:44 AM 44.1°F6.7°C 40.4°F4.7°C 87% 6.0 mph WSW9.7 kmh WSW 11.0 mph17.7 kmh 29.85 in1010.8 mb 0.00 in0.0 mm 0.00 in0.0 mm 0.09 in2.3 mm
10:49 AM 44.2°F6.8°C 40.3°F4.6°C 86% 6.0 mph SSW9.7 kmh SSW 9.0 mph14.5 kmh 29.85 in1010.8 mb 0.00 in0.0 mm 0.00 in0.0 mm 0.09 in2.3 mm
10:54 AM 44.2°F6.8°C 40.3°F4.6°C 86% 7.0 mph W11.3 kmh W 9.0 mph14.5 kmh 29.85 in1010.8 mb 0.00 in0.0 mm 0.00 in0.0 mm 0.09 in2.3 mm
10:59 AM 44.2°F6.8°C 40.3°F4.6°C 86% 10.0 mph W16.1 kmh W 14.0 mph22.5 kmh 29.85 in1010.8 mb 0.00 in0.0 mm 0.00 in0.0 mm 0.09 in2.3 mm
11:04 AM 44.2°F6.8°C 40.6°F4.8°C 87% 8.0 mph WSW12.9 kmh WSW 11.0 mph17.7 kmh 29.85 in1010.8 mb 0.00 in0.0 mm 0.00 in0.0 mm 0.09 in2.3 mm
11:09 AM 44.4°F6.9°C 40.8°F4.9°C 87% 6.0 mph W9.7 kmh W 11.0 mph17.7 kmh 29.85 in1010.8 mb 0.00 in0.0 mm 0.00 in0.0 mm 0.09 in2.3 mm
11:14 AM 44.4°F6.9°C 41.1°F5.1°C 88% 9.0 mph W14.5 kmh W 13.0 mph20.9 kmh 29.86 in1011.2 mb 0.00 in0.0 mm 0.00 in0.0 mm 0.09 in2.3 mm
11:19 AM 44.4°F6.9°C 41.1°F5.1°C 88% 4.0 mph W6.4 kmh W 8.0 mph12.9 kmh 29.86 in1011.2 mb 0.00 in0.0 mm 0.00 in0.0 mm 0.09 in2.3 mm
11:24 AM 44.4°F6.9°C 41.1°F5.1°C 88% 10.0 mph W16.1 kmh W 15.0 mph24.1 kmh 29.86 in1011.2 mb 0.00 in0.0 mm 0.00 in0.0 mm 0.09 in2.3 mm
11:29 AM 44.4°F6.9°C 41.1°F5.1°C 88% 5.0 mph SW8.0 kmh SW 9.0 mph14.5 kmh 29.86 in1011.2 mb 0.00 in0.0 mm 0.00 in0.0 mm 0.09 in2.3 mm
11:34 AM 44.4°F6.9°C 41.1°F5.1°C 88% 3.0 mph WSW4.8 kmh WSW 7.0 mph11.3 kmh 29.86 in1011.2 mb 0.00 in0.0 mm 0.00 in0.0 mm 0.09 in2.3 mm
11:39 AM 44.4°F6.9°C 40.8°F4.9°C 87% 3.0 mph WSW4.8 kmh WSW 7.0 mph11.3 kmh 29.86 in1011.2 mb 0.00 in0.0 mm 0.00 in0.0 mm 0.09 in2.3 mm
11:44 AM 44.4°F6.9°C 40.8°F4.9°C 87% 5.0 mph SW8.0 kmh SW 9.0 mph14.5 kmh 29.86 in1011.2 mb 0.00 in0.0 mm 0.00 in0.0 mm 0.09 in2.3 mm
11:49 AM 44.4°F6.9°C 40.8°F4.9°C 87% 6.0 mph SSW9.7 kmh SSW 13.0 mph20.9 kmh 29.86 in1011.2 mb 0.00 in0.0 mm 0.00 in0.0 mm 0.09 in2.3 mm
11:54 AM 44.4°F6.9°C 40.8°F4.9°C 87% 6.0 mph SW9.7 kmh SW 9.0 mph14.5 kmh 29.86 in1011.2 mb 0.00 in0.0 mm 0.00 in0.0 mm 0.09 in2.3 mm
11:59 AM 44.4°F6.9°C 40.8°F4.9°C 87% 8.0 mph SW12.9 kmh SW 13.0 mph20.9 kmh 29.85 in1010.8 mb 0.00 in0.0 mm 0.00 in0.0 mm 0.09 in2.3 mm
12:04 PM 44.4°F6.9°C 40.5°F4.7°C 86% 7.0 mph SW11.3 kmh SW 10.0 mph16.1 kmh 29.85 in1010.8 mb 0.00 in0.0 mm 0.00 in0.0 mm 0.09 in2.3 mm
12:09 PM 44.6°F7.0°C 40.7°F4.8°C 86% 7.0 mph SW11.3 kmh SW 11.0 mph17.7 kmh 29.84 in1010.5 mb 0.00 in0.0 mm 0.00 in0.0 mm 0.09 in2.3 mm
12:14 PM 44.6°F7.0°C 40.7°F4.8°C 86% 4.0 mph SW6.4 kmh SW 7.0 mph11.3 kmh 29.83 in1010.2 mb 0.00 in0.0 mm 0.00 in0.0 mm 0.09 in2.3 mm
12:19 PM 44.8°F7.1°C 40.9°F4.9°C 86% 4.0 mph SSW6.4 kmh SSW 10.0 mph16.1 kmh 29.84 in1010.5 mb 0.00 in0.0 mm 0.00 in0.0 mm 0.09 in2.3 mm
12:24 PM 44.8°F7.1°C 41.2°F5.1°C 87% 6.0 mph SW9.7 kmh SW 9.0 mph14.5 kmh 29.83 in1010.2 mb 0.00 in0.0 mm 0.00 in0.0 mm 0.09 in2.3 mm
12:29 PM 44.8°F7.1°C 41.2°F5.1°C 87% 8.0 mph WSW12.9 kmh WSW 12.0 mph19.3 kmh 29.83 in1010.2 mb 0.00 in0.0 mm 0.00 in0.0 mm 0.09 in2.3 mm
12:34 PM 44.8°F7.1°C 41.2°F5.1°C 87% 3.0 mph SW4.8 kmh SW 5.0 mph8.0 kmh 29.83 in1010.2 mb 0.00 in0.0 mm 0.00 in0.0 mm 0.09 in2.3 mm
12:39 PM 44.8°F7.1°C 41.2°F5.1°C 87% 5.0 mph SSE8.0 kmh SSE 11.0 mph17.7 kmh 29.82 in1009.8 mb 0.00 in0.0 mm 0.00 in0.0 mm 0.09 in2.3 mm
12:44 PM 44.8°F7.1°C 41.2°F5.1°C 87% 7.0 mph SW11.3 kmh SW 12.0 mph19.3 kmh 29.83 in1010.2 mb 0.00 in0.0 mm 0.00 in0.0 mm 0.09 in2.3 mm
12:49 PM 45.0°F7.2°C 41.0°F5.0°C 86% 5.0 mph SW8.0 kmh SW 9.0 mph14.5 kmh 29.83 in1010.2 mb 0.00 in0.0 mm 0.00 in0.0 mm 0.09 in2.3 mm
12:54 PM 45.0°F7.2°C 41.0°F5.0°C 86% 3.0 mph SSW4.8 kmh SSW 5.0 mph8.0 kmh 29.83 in1010.2 mb 0.00 in0.0 mm 0.00 in0.0 mm 0.09 in2.3 mm
12:59 PM 45.0°F7.2°C 40.7°F4.8°C 85% 5.0 mph S8.0 kmh S 8.0 mph12.9 kmh 29.83 in1010.2 mb 0.00 in0.0 mm 0.00 in0.0 mm 0.09 in2.3 mm
01:04 PM 45.0°F7.2°C 40.7°F4.8°C 85% 7.0 mph SW11.3 kmh SW 10.0 mph16.1 kmh 29.83 in1010.2 mb 0.00 in0.0 mm 0.00 in0.0 mm 0.09 in2.3 mm
01:09 PM 45.0°F7.2°C 41.0°F5.0°C 86% 4.0 mph SSW6.4 kmh SSW 6.0 mph9.7 kmh 29.83 in1010.2 mb 0.00 in0.0 mm 0.00 in0.0 mm 0.09 in2.3 mm
01:14 PM 45.0°F7.2°C 41.0°F5.0°C 86% 6.0 mph SW9.7 kmh SW 10.0 mph16.1 kmh 29.83 in1010.2 mb 0.00 in0.0 mm 0.00 in0.0 mm 0.09 in2.3 mm
01:19 PM 45.0°F7.2°C 41.0°F5.0°C 86% 6.0 mph S9.7 kmh S 11.0 mph17.7 kmh 29.83 in1010.2 mb 0.00 in0.0 mm 0.00 in0.0 mm 0.09 in2.3 mm
01:24 PM 45.0°F7.2°C 41.0°F5.0°C 86% 7.0 mph SSW11.3 kmh SSW 13.0 mph20.9 kmh 29.82 in1009.8 mb 0.00 in0.0 mm 0.00 in0.0 mm 0.09 in2.3 mm
01:29 PM 45.0°F7.2°C 41.0°F5.0°C 86% 6.0 mph SSW9.7 kmh SSW 8.0 mph12.9 kmh 29.83 in1010.2 mb 0.00 in0.0 mm 0.00 in0.0 mm 0.09 in2.3 mm
01:34 PM 44.8°F7.1°C 40.9°F4.9°C 86% 6.0 mph SSW9.7 kmh SSW 8.0 mph12.9 kmh 29.83 in1010.2 mb 0.00 in0.0 mm 0.00 in0.0 mm 0.09 in2.3 mm
01:39 PM 44.8°F7.1°C 40.9°F4.9°C 86% 5.0 mph S8.0 kmh S 9.0 mph14.5 kmh 29.82 in1009.8 mb 0.00 in0.0 mm 0.00 in0.0 mm 0.09 in2.3 mm
01:44 PM 44.8°F7.1°C 40.6°F4.8°C 85% 10.0 mph SW16.1 kmh SW 15.0 mph24.1 kmh 29.82 in1009.8 mb 0.00 in0.0 mm 0.00 in0.0 mm 0.09 in2.3 mm
01:49 PM 44.6°F7.0°C 40.7°F4.8°C 86% 7.0 mph S11.3 kmh S 12.0 mph19.3 kmh 29.82 in1009.8 mb 0.00 in0.0 mm 0.00 in0.0 mm 0.09 in2.3 mm
01:54 PM 44.6°F7.0°C 40.4°F4.7°C 85% 9.0 mph SSW14.5 kmh SSW 12.0 mph19.3 kmh 29.82 in1009.8 mb 0.00 in0.0 mm 0.00 in0.0 mm 0.09 in2.3 mm
01:59 PM 44.6°F7.0°C 40.4°F4.7°C 85% 6.0 mph SW9.7 kmh SW 10.0 mph16.1 kmh 29.82 in1009.8 mb 0.00 in0.0 mm 0.00 in0.0 mm 0.09 in2.3 mm
02:04 PM 44.6°F7.0°C 40.4°F4.7°C 85% 7.0 mph S11.3 kmh S 11.0 mph17.7 kmh 29.82 in1009.8 mb 0.00 in0.0 mm 0.00 in0.0 mm 0.09 in2.3 mm
02:09 PM 44.6°F7.0°C 40.4°F4.7°C 85% 8.0 mph SW12.9 kmh SW 13.0 mph20.9 kmh 29.81 in1009.5 mb 0.00 in0.0 mm 0.00 in0.0 mm 0.09 in2.3 mm
02:14 PM 44.6°F7.0°C 40.4°F4.7°C 85% 5.0 mph S8.0 kmh S 8.0 mph12.9 kmh 29.81 in1009.5 mb 0.00 in0.0 mm 0.00 in0.0 mm 0.09 in2.3 mm
02:19 PM 44.6°F7.0°C 40.4°F4.7°C 85% 7.0 mph SSE11.3 kmh SSE 10.0 mph16.1 kmh 29.81 in1009.5 mb 0.00 in0.0 mm 0.00 in0.0 mm 0.09 in2.3 mm
02:24 PM 44.6°F7.0°C 40.4°F4.7°C 85% 8.0 mph S12.9 kmh S 12.0 mph19.3 kmh 29.80 in1009.1 mb 0.00 in0.0 mm 0.00 in0.0 mm 0.09 in2.3 mm
02:29 PM 44.4°F6.9°C 40.2°F4.6°C 85% 4.0 mph S6.4 kmh S 5.0 mph8.0 kmh 29.80 in1009.1 mb 0.00 in0.0 mm 0.00 in0.0 mm 0.09 in2.3 mm
02:34 PM 44.4°F6.9°C 40.2°F4.6°C 85% 6.0 mph S9.7 kmh S 12.0 mph19.3 kmh 29.80 in1009.1 mb 0.00 in0.0 mm 0.00 in0.0 mm 0.09 in2.3 mm
02:39 PM 44.2°F6.8°C 40.0°F4.4°C 85% 10.0 mph S16.1 kmh S 14.0 mph22.5 kmh 29.79 in1008.8 mb 0.00 in0.0 mm 0.00 in0.0 mm 0.09 in2.3 mm
02:44 PM 44.2°F6.8°C 40.0°F4.4°C 85% 6.0 mph SE9.7 kmh SE 9.0 mph14.5 kmh 29.79 in1008.8 mb 0.00 in0.0 mm 0.00 in0.0 mm 0.12 in3.0 mm
02:49 PM 44.2°F6.8°C 40.0°F4.4°C 85% 8.0 mph SSW12.9 kmh SSW 12.0 mph19.3 kmh 29.79 in1008.8 mb 0.00 in0.0 mm 0.00 in0.0 mm 0.12 in3.0 mm
02:54 PM 44.2°F6.8°C 40.0°F4.4°C 85% 6.0 mph SSW9.7 kmh SSW 10.0 mph16.1 kmh 29.79 in1008.8 mb 0.00 in0.0 mm 0.00 in0.0 mm 0.12 in3.0 mm
02:59 PM 44.1°F6.7°C 39.8°F4.3°C 85% 6.0 mph SSW9.7 kmh SSW 10.0 mph16.1 kmh 29.79 in1008.8 mb 0.00 in0.0 mm 0.00 in0.0 mm 0.12 in3.0 mm
03:04 PM 43.9°F6.6°C 40.0°F4.4°C 86% 5.0 mph SE8.0 kmh SE 7.0 mph11.3 kmh 29.78 in1008.5 mb 0.00 in0.0 mm 0.00 in0.0 mm 0.12 in3.0 mm
03:09 PM 43.7°F6.5°C 39.8°F4.3°C 86% 7.0 mph SSW11.3 kmh SSW 9.0 mph14.5 kmh 29.78 in1008.5 mb 0.00 in0.0 mm 0.00 in0.0 mm 0.12 in3.0 mm
03:14 PM 43.5°F6.4°C 39.6°F4.2°C 86% 9.0 mph S14.5 kmh S 12.0 mph19.3 kmh 29.78 in1008.5 mb 0.00 in0.0 mm 0.00 in0.0 mm 0.12 in3.0 mm
03:19 PM 43.3°F6.3°C 39.4°F4.1°C 86% 9.0 mph SSE14.5 kmh SSE 16.0 mph25.7 kmh 29.78 in1008.5 mb 0.00 in0.0 mm 0.00 in0.0 mm 0.12 in3.0 mm
03:24 PM 43.3°F6.3°C 39.4°F4.1°C 86% 9.0 mph S14.5 kmh S 15.0 mph24.1 kmh 29.78 in1008.5 mb 0.00 in0.0 mm 0.00 in0.0 mm 0.12 in3.0 mm
03:29 PM 43.3°F6.3°C 39.4°F4.1°C 86% 7.0 mph S11.3 kmh S 12.0 mph19.3 kmh 29.78 in1008.5 mb 0.00 in0.0 mm 0.00 in0.0 mm 0.12 in3.0 mm
03:34 PM 43.3°F6.3°C 39.4°F4.1°C 86% 7.0 mph SSE11.3 kmh SSE 11.0 mph17.7 kmh 29.78 in1008.5 mb 0.00 in0.0 mm 0.00 in0.0 mm 0.12 in3.0 mm
03:39 PM 43.3°F6.3°C 39.4°F4.1°C 86% 7.0 mph SSE11.3 kmh SSE 14.0 mph22.5 kmh 29.77 in1008.1 mb 0.00 in0.0 mm 0.00 in0.0 mm 0.12 in3.0 mm
03:44 PM 43.3°F6.3°C 39.4°F4.1°C 86% 5.0 mph SSE8.0 kmh SSE 8.0 mph12.9 kmh 29.76 in1007.8 mb 0.00 in0.0 mm 0.00 in0.0 mm 0.12 in3.0 mm
03:49 PM 43.5°F6.4°C 39.6°F4.2°C 86% 7.0 mph SSE11.3 kmh SSE 11.0 mph17.7 kmh 29.76 in1007.8 mb 0.00 in0.0 mm 0.00 in0.0 mm 0.12 in3.0 mm
03:54 PM 43.5°F6.4°C 39.6°F4.2°C 86% 5.0 mph SE8.0 kmh SE 7.0 mph11.3 kmh 29.76 in1007.8 mb 0.00 in0.0 mm 0.00 in0.0 mm 0.12 in3.0 mm
03:59 PM 43.5°F6.4°C 39.6°F4.2°C 86% 8.0 mph SE12.9 kmh SE 11.0 mph17.7 kmh 29.75 in1007.5 mb 0.00 in0.0 mm 0.00 in0.0 mm 0.12 in3.0 mm
04:04 PM 43.7°F6.5°C 39.8°F4.3°C 86% 6.0 mph SE9.7 kmh SE 8.0 mph12.9 kmh 29.75 in1007.5 mb 0.00 in0.0 mm 0.00 in0.0 mm 0.12 in3.0 mm
04:09 PM 43.9°F6.6°C 40.0°F4.4°C 86% 8.0 mph SE12.9 kmh SE 11.0 mph17.7 kmh 29.75 in1007.5 mb 0.00 in0.0 mm 0.00 in0.0 mm 0.12 in3.0 mm
04:14 PM 43.7°F6.5°C 40.1°F4.5°C 87% 6.0 mph SE9.7 kmh SE 9.0 mph14.5 kmh 29.74 in1007.1 mb 0.00 in0.0 mm 0.00 in0.0 mm 0.12 in3.0 mm
04:19 PM 43.5°F6.4°C 39.9°F4.4°C 87% 7.0 mph SSE11.3 kmh SSE 10.0 mph16.1 kmh 29.74 in1007.1 mb 0.00 in0.0 mm 0.00 in0.0 mm 0.12 in3.0 mm
04:24 PM 43.7°F6.5°C 40.1°F4.5°C 87% 8.0 mph SE12.9 kmh SE 14.0 mph22.5 kmh 29.73 in1006.8 mb 0.00 in0.0 mm 0.00 in0.0 mm 0.12 in3.0 mm
04:29 PM 43.9°F6.6°C 40.3°F4.6°C 87% 11.0 mph SSW17.7 kmh SSW 16.0 mph25.7 kmh 29.73 in1006.8 mb 0.00 in0.0 mm 0.00 in0.0 mm 0.12 in3.0 mm
04:34 PM 43.9°F6.6°C 40.3°F4.6°C 87% 10.0 mph SE16.1 kmh SE 15.0 mph24.1 kmh 29.73 in1006.8 mb 0.00 in0.0 mm 0.00 in0.0 mm 0.12 in3.0 mm
04:39 PM 43.9°F6.6°C 40.6°F4.8°C 88% 8.0 mph SSE12.9 kmh SSE 13.0 mph20.9 kmh 29.72 in1006.4 mb 0.00 in0.0 mm 0.00 in0.0 mm 0.12 in3.0 mm
04:44 PM 43.9°F6.6°C 40.6°F4.8°C 88% 10.0 mph S16.1 kmh S 15.0 mph24.1 kmh 29.72 in1006.4 mb 0.00 in0.0 mm 0.00 in0.0 mm 0.12 in3.0 mm
04:49 PM 43.9°F6.6°C 40.6°F4.8°C 88% 9.0 mph SSE14.5 kmh SSE 12.0 mph19.3 kmh 29.72 in1006.4 mb 0.00 in0.0 mm 0.00 in0.0 mm 0.12 in3.0 mm
04:54 PM 43.7°F6.5°C 40.7°F4.8°C 89% 7.0 mph S11.3 kmh S 10.0 mph16.1 kmh 29.71 in1006.1 mb 0.00 in0.0 mm 0.00 in0.0 mm 0.12 in3.0 mm
04:59 PM 43.7°F6.5°C 40.7°F4.8°C 89% 12.0 mph SSW19.3 kmh SSW 20.0 mph32.2 kmh 29.71 in1006.1 mb 0.00 in0.0 mm 0.00 in0.0 mm 0.12 in3.0 mm
05:04 PM 43.9°F6.6°C 40.9°F4.9°C 89% 9.0 mph SSE14.5 kmh SSE 11.0 mph17.7 kmh 29.71 in1006.1 mb 0.00 in0.0 mm 0.00 in0.0 mm 0.12 in3.0 mm
05:09 PM 43.9°F6.6°C 40.9°F4.9°C 89% 10.0 mph SSE16.1 kmh SSE 15.0 mph24.1 kmh 29.71 in1006.1 mb 0.00 in0.0 mm 0.00 in0.0 mm 0.12 in3.0 mm
05:14 PM 43.7°F6.5°C 41.0°F5.0°C 90% 10.0 mph S16.1 kmh S 16.0 mph25.7 kmh 29.71 in1006.1 mb 0.00 in0.0 mm 0.00 in0.0 mm 0.12 in3.0 mm
05:19 PM 43.7°F6.5°C 41.0°F5.0°C 90% 12.0 mph SSE19.3 kmh SSE 19.0 mph30.6 kmh 29.70 in1005.8 mb 0.00 in0.0 mm 0.00 in0.0 mm 0.12 in3.0 mm
05:24 PM 43.5°F6.4°C 41.1°F5.1°C 91% 10.0 mph S16.1 kmh S 13.0 mph20.9 kmh 29.70 in1005.8 mb 0.00 in0.0 mm 0.00 in0.0 mm 0.12 in3.0 mm
05:29 PM 43.5°F6.4°C 41.1°F5.1°C 91% 11.0 mph S17.7 kmh S 14.0 mph22.5 kmh 29.70 in1005.8 mb 0.00 in0.0 mm 0.00 in0.0 mm 0.12 in3.0 mm
05:34 PM 43.5°F6.4°C 41.1°F5.1°C 91% 11.0 mph SE17.7 kmh SE 18.0 mph29.0 kmh 29.70 in1005.8 mb 0.00 in0.0 mm 0.00 in0.0 mm 0.12 in3.0 mm
05:39 PM 43.3°F6.3°C 41.2°F5.1°C 92% 9.0 mph SE14.5 kmh SE 15.0 mph24.1 kmh 29.69 in1005.4 mb 0.00 in0.0 mm 0.00 in0.0 mm 0.12 in3.0 mm
05:44 PM 43.3°F6.3°C 41.2°F5.1°C 92% 8.0 mph SE12.9 kmh SE 13.0 mph20.9 kmh 29.68 in1005.1 mb 0.00 in0.0 mm 0.00 in0.0 mm 0.12 in3.0 mm
05:49 PM 43.3°F6.3°C 41.2°F5.1°C 92% 9.0 mph SE14.5 kmh SE 11.0 mph17.7 kmh 29.68 in1005.1 mb 0.00 in0.0 mm 0.00 in0.0 mm 0.13 in3.3 mm
05:54 PM 43.3°F6.3°C 41.2°F5.1°C 92% 12.0 mph SE19.3 kmh SE 16.0 mph25.7 kmh 29.68 in1005.1 mb 0.00 in0.0 mm 0.00 in0.0 mm 0.13 in3.3 mm
05:59 PM 43.2°F6.2°C 41.0°F5.0°C 92% 9.0 mph SE14.5 kmh SE 13.0 mph20.9 kmh 29.67 in1004.7 mb 0.00 in0.0 mm 0.00 in0.0 mm 0.13 in3.3 mm
06:03 PM 43.2°F6.2°C 41.0°F5.0°C 92% 11.0 mph SE17.7 kmh SE 17.0 mph27.4 kmh 29.67 in1004.7 mb 0.00 in0.0 mm 0.00 in0.0 mm 0.13 in3.3 mm
06:09 PM 43.2°F6.2°C 41.3°F5.2°C 93% 9.0 mph SE14.5 kmh SE 14.0 mph22.5 kmh 29.67 in1004.7 mb 0.00 in0.0 mm 0.00 in0.0 mm 0.13 in3.3 mm
06:14 PM 43.2°F6.2°C 41.3°F5.2°C 93% 10.0 mph SE16.1 kmh SE 14.0 mph22.5 kmh 29.66 in1004.4 mb 0.00 in0.0 mm 0.00 in0.0 mm 0.13 in3.3 mm
06:19 PM 43.2°F6.2°C 41.3°F5.2°C 93% 13.0 mph SE20.9 kmh SE 17.0 mph27.4 kmh 29.66 in1004.4 mb 0.00 in0.0 mm 0.00 in0.0 mm 0.13 in3.3 mm
06:24 PM 43.2°F6.2°C 41.3°F5.2°C 93% 14.0 mph SSE22.5 kmh SSE 19.0 mph30.6 kmh 29.65 in1004.1 mb 0.00 in0.0 mm 0.00 in0.0 mm 0.13 in3.3 mm
06:29 PM 43.2°F6.2°C 41.6°F5.3°C 94% 10.0 mph SE16.1 kmh SE 13.0 mph20.9 kmh 29.65 in1004.1 mb 0.00 in0.0 mm 0.00 in0.0 mm 0.13 in3.3 mm
06:34 PM 43.2°F6.2°C 41.6°F5.3°C 94% 14.0 mph ESE22.5 kmh ESE 21.0 mph33.8 kmh 29.64 in1003.7 mb 0.00 in0.0 mm 0.00 in0.0 mm 0.13 in3.3 mm
06:39 PM 43.2°F6.2°C 41.6°F5.3°C 94% 15.0 mph SE24.1 kmh SE 22.0 mph35.4 kmh 29.63 in1003.4 mb 0.00 in0.0 mm 0.00 in0.0 mm 0.13 in3.3 mm
06:44 PM 43.2°F6.2°C 41.6°F5.3°C 94% 12.0 mph SE19.3 kmh SE 18.0 mph29.0 kmh 29.63 in1003.4 mb 0.00 in0.0 mm 0.00 in0.0 mm 0.13 in3.3 mm
06:49 PM 43.2°F6.2°C 41.8°F5.4°C 95% 12.0 mph SSE19.3 kmh SSE 15.0 mph24.1 kmh 29.62 in1003.0 mb 0.00 in0.0 mm 0.00 in0.0 mm 0.13 in3.3 mm
06:54 PM 43.2°F6.2°C 41.8°F5.4°C 95% 12.0 mph SE19.3 kmh SE 16.0 mph25.7 kmh 29.62 in1003.0 mb 0.00 in0.0 mm 0.00 in0.0 mm 0.13 in3.3 mm
06:59 PM 43.2°F6.2°C 41.8°F5.4°C 95% 9.0 mph SE14.5 kmh SE 13.0 mph20.9 kmh 29.61 in1002.7 mb 0.00 in0.0 mm 0.00 in0.0 mm 0.13 in3.3 mm
07:04 PM 43.2°F6.2°C 41.8°F5.4°C 95% 12.0 mph SE19.3 kmh SE 15.0 mph24.1 kmh 29.61 in1002.7 mb 0.00 in0.0 mm 0.00 in0.0 mm 0.13 in3.3 mm
07:09 PM 43.2°F6.2°C 41.8°F5.4°C 95% 12.0 mph SE19.3 kmh SE 17.0 mph27.4 kmh 29.62 in1003.0 mb 0.00 in0.0 mm 0.00 in0.0 mm 0.14 in3.6 mm
07:14 PM 43.2°F6.2°C 41.8°F5.4°C 95% 10.0 mph SE16.1 kmh SE 17.0 mph27.4 kmh 29.61 in1002.7 mb 0.00 in0.0 mm 0.00 in0.0 mm 0.14 in3.6 mm
07:19 PM 43.2°F6.2°C 41.8°F5.4°C 95% 12.0 mph SSE19.3 kmh SSE 15.0 mph24.1 kmh 29.61 in1002.7 mb 0.00 in0.0 mm 0.00 in0.0 mm 0.14 in3.6 mm
07:24 PM 43.2°F6.2°C 41.8°F5.4°C 95% 10.0 mph S16.1 kmh S 14.0 mph22.5 kmh 29.60 in1002.4 mb 0.00 in0.0 mm 0.00 in0.0 mm 0.14 in3.6 mm
07:29 PM 43.2°F6.2°C 41.8°F5.4°C 95% 8.0 mph SE12.9 kmh SE 12.0 mph19.3 kmh 29.60 in1002.4 mb 0.00 in0.0 mm 0.00 in0.0 mm 0.14 in3.6 mm
07:34 PM 43.2°F6.2°C 41.8°F5.4°C 95% 10.0 mph SE16.1 kmh SE 14.0 mph22.5 kmh 29.59 in1002.0 mb 0.00 in0.0 mm 0.00 in0.0 mm 0.14 in3.6 mm
07:39 PM 43.2°F6.2°C 41.8°F5.4°C 95% 12.0 mph SE19.3 kmh SE 20.0 mph32.2 kmh 29.59 in1002.0 mb 0.00 in0.0 mm 0.00 in0.0 mm 0.14 in3.6 mm
07:44 PM 43.3°F6.3°C 42.0°F5.6°C 95% 11.0 mph SE17.7 kmh SE 14.0 mph22.5 kmh 29.59 in1002.0 mb 0.00 in0.0 mm 0.00 in0.0 mm 0.14 in3.6 mm
07:49 PM 43.3°F6.3°C 42.0°F5.6°C 95% 8.0 mph SSE12.9 kmh SSE 18.0 mph29.0 kmh 29.59 in1002.0 mb 0.00 in0.0 mm 0.00 in0.0 mm 0.14 in3.6 mm
07:54 PM 43.3°F6.3°C 42.3°F5.7°C 96% 6.0 mph SE9.7 kmh SE 9.0 mph14.5 kmh 29.59 in1002.0 mb 0.00 in0.0 mm 0.00 in0.0 mm 0.14 in3.6 mm
07:59 PM 43.5°F6.4°C 42.5°F5.8°C 96% 9.0 mph S14.5 kmh S 14.0 mph22.5 kmh 29.58 in1001.7 mb 0.00 in0.0 mm 0.00 in0.0 mm 0.15 in3.8 mm
08:04 PM 43.7°F6.5°C 42.6°F5.9°C 96% 13.0 mph S20.9 kmh S 18.0 mph29.0 kmh 29.58 in1001.7 mb 0.00 in0.0 mm 0.00 in0.0 mm 0.15 in3.8 mm
08:09 PM 43.9°F6.6°C 42.8°F6.0°C 96% 9.0 mph SSE14.5 kmh SSE 14.0 mph22.5 kmh 29.58 in1001.7 mb 0.00 in0.0 mm 0.00 in0.0 mm 0.15 in3.8 mm
08:14 PM 43.9°F6.6°C 42.8°F6.0°C 96% 11.0 mph SSW17.7 kmh SSW 15.0 mph24.1 kmh 29.57 in1001.4 mb 0.00 in0.0 mm 0.00 in0.0 mm 0.15 in3.8 mm
08:19 PM 44.1°F6.7°C 43.0°F6.1°C 96% 10.0 mph S16.1 kmh S 16.0 mph25.7 kmh 29.58 in1001.7 mb 0.00 in0.0 mm 0.00 in0.0 mm 0.15 in3.8 mm
08:24 PM 44.2°F6.8°C 43.2°F6.2°C 96% 10.0 mph SSW16.1 kmh SSW 12.0 mph19.3 kmh 29.57 in1001.4 mb 0.00 in0.0 mm 0.00 in0.0 mm 0.15 in3.8 mm
08:29 PM 44.4°F6.9°C 43.4°F6.3°C 96% 6.0 mph S9.7 kmh S 8.0 mph12.9 kmh 29.57 in1001.4 mb 0.00 in0.0 mm 0.00 in0.0 mm 0.15 in3.8 mm
08:34 PM 44.4°F6.9°C 43.4°F6.3°C 96% 7.0 mph SE11.3 kmh SE 10.0 mph16.1 kmh 29.57 in1001.4 mb 0.00 in0.0 mm 0.00 in0.0 mm 0.15 in3.8 mm
08:39 PM 45.0°F7.2°C 43.9°F6.6°C 96% 9.0 mph S14.5 kmh S 12.0 mph19.3 kmh 29.56 in1001.0 mb 0.00 in0.0 mm 0.00 in0.0 mm 0.15 in3.8 mm
08:44 PM 45.0°F7.2°C 43.9°F6.6°C 96% 8.0 mph S12.9 kmh S 14.0 mph22.5 kmh 29.55 in1000.7 mb 0.00 in0.0 mm 0.00 in0.0 mm 0.15 in3.8 mm
08:49 PM 45.3°F7.4°C 44.2°F6.8°C 96% 8.0 mph S12.9 kmh S 10.0 mph16.1 kmh 29.55 in1000.7 mb 0.00 in0.0 mm 0.00 in0.0 mm 0.15 in3.8 mm
08:54 PM 45.5°F7.5°C 44.4°F6.9°C 96% 8.0 mph S12.9 kmh S 11.0 mph17.7 kmh 29.55 in1000.7 mb 0.00 in0.0 mm 0.00 in0.0 mm 0.15 in3.8 mm
08:59 PM 45.9°F7.7°C 44.8°F7.1°C 96% 8.0 mph S12.9 kmh S 13.0 mph20.9 kmh 29.54 in1000.3 mb 0.00 in0.0 mm 0.00 in0.0 mm 0.15 in3.8 mm
09:04 PM 46.2°F7.9°C 45.1°F7.3°C 96% 10.0 mph SSW16.1 kmh SSW 16.0 mph25.7 kmh 29.54 in1000.3 mb 0.00 in0.0 mm 0.00 in0.0 mm 0.15 in3.8 mm
09:09 PM 46.8°F8.2°C 45.7°F7.6°C 96% 10.0 mph SSW16.1 kmh SSW 14.0 mph22.5 kmh 29.54 in1000.3 mb 0.00 in0.0 mm 0.00 in0.0 mm 0.15 in3.8 mm
09:14 PM 46.9°F8.3°C 45.6°F7.6°C 95% 9.0 mph SSW14.5 kmh SSW 15.0 mph24.1 kmh 29.54 in1000.3 mb 0.00 in0.0 mm 0.00 in0.0 mm 0.15 in3.8 mm
09:19 PM 47.1°F8.4°C 46.0°F7.8°C 96% 9.0 mph SSW14.5 kmh SSW 12.0 mph19.3 kmh 29.54 in1000.3 mb 0.00 in0.0 mm 0.00 in0.0 mm 0.15 in3.8 mm
09:24 PM 47.5°F8.6°C 46.1°F7.8°C 95% 8.0 mph SW12.9 kmh SW 12.0 mph19.3 kmh 29.54 in1000.3 mb 0.00 in0.0 mm 0.00 in0.0 mm 0.15 in3.8 mm
09:29 PM 47.7°F8.7°C 46.3°F7.9°C 95% 11.0 mph SSW17.7 kmh SSW 20.0 mph32.2 kmh 29.53 in1000.0 mb 0.00 in0.0 mm 0.00 in0.0 mm 0.15 in3.8 mm
09:34 PM 47.8°F8.8°C 46.5°F8.1°C 95% 10.0 mph S16.1 kmh S 12.0 mph19.3 kmh 29.53 in1000.0 mb 0.00 in0.0 mm 0.00 in0.0 mm 0.15 in3.8 mm
09:39 PM 48.0°F8.9°C 46.7°F8.2°C 95% 12.0 mph SSW19.3 kmh SSW 16.0 mph25.7 kmh 29.52 in999.7 mb 0.00 in0.0 mm 0.00 in0.0 mm 0.15 in3.8 mm
09:44 PM 48.4°F9.1°C 47.0°F8.3°C 95% 12.0 mph SSW19.3 kmh SSW 20.0 mph32.2 kmh 29.51 in999.3 mb 0.00 in0.0 mm 0.00 in0.0 mm 0.15 in3.8 mm
09:49 PM 48.6°F9.2°C 47.2°F8.4°C 95% 8.0 mph S12.9 kmh S 17.0 mph27.4 kmh 29.51 in999.3 mb 0.00 in0.0 mm 0.00 in0.0 mm 0.15 in3.8 mm
09:54 PM 48.7°F9.3°C 47.4°F8.6°C 95% 11.0 mph SW17.7 kmh SW 16.0 mph25.7 kmh 29.50 in999.0 mb 0.00 in0.0 mm 0.00 in0.0 mm 0.16 in4.1 mm
09:59 PM 48.7°F9.3°C 47.4°F8.6°C 95% 10.0 mph SSW16.1 kmh SSW 15.0 mph24.1 kmh 29.49 in998.6 mb 0.00 in0.0 mm 0.00 in0.0 mm 0.16 in4.1 mm
10:04 PM 48.6°F9.2°C 47.2°F8.4°C 95% 9.0 mph SSE14.5 kmh SSE 16.0 mph25.7 kmh 29.49 in998.6 mb 0.00 in0.0 mm 0.00 in0.0 mm 0.16 in4.1 mm
10:09 PM 48.6°F9.2°C 47.2°F8.4°C 95% 6.0 mph SSE9.7 kmh SSE 12.0 mph19.3 kmh 29.48 in998.3 mb 0.00 in0.0 mm 0.00 in0.0 mm 0.16 in4.1 mm
10:14 PM 48.2°F9.0°C 46.8°F8.2°C 95% 6.0 mph SSE9.7 kmh SSE 9.0 mph14.5 kmh 29.47 in998.0 mb 0.00 in0.0 mm 0.00 in0.0 mm 0.16 in4.1 mm
10:19 PM 48.0°F8.9°C 46.7°F8.2°C 95% 8.0 mph SSW12.9 kmh SSW 13.0 mph20.9 kmh 29.47 in998.0 mb 0.00 in0.0 mm 0.00 in0.0 mm 0.17 in4.3 mm
10:24 PM 48.2°F9.0°C 46.8°F8.2°C 95% 8.0 mph S12.9 kmh S 12.0 mph19.3 kmh 29.47 in998.0 mb 0.00 in0.0 mm 0.00 in0.0 mm 0.17 in4.3 mm
10:29 PM 48.2°F9.0°C 46.8°F8.2°C 95% 9.0 mph SSE14.5 kmh SSE 13.0 mph20.9 kmh 29.47 in998.0 mb 0.00 in0.0 mm 0.00 in0.0 mm 0.17 in4.3 mm
10:34 PM 48.4°F9.1°C 47.3°F8.5°C 96% 9.0 mph S14.5 kmh S 16.0 mph25.7 kmh 29.47 in998.0 mb 0.00 in0.0 mm 0.00 in0.0 mm 0.17 in4.3 mm
10:39 PM 48.6°F9.2°C 47.5°F8.6°C 96% 9.0 mph SSW14.5 kmh SSW 12.0 mph19.3 kmh 29.47 in998.0 mb 0.00 in0.0 mm 0.00 in0.0 mm 0.17 in4.3 mm
10:44 PM 48.4°F9.1°C 47.3°F8.5°C 96% 10.0 mph SSW16.1 kmh SSW 13.0 mph20.9 kmh 29.47 in998.0 mb 0.00 in0.0 mm 0.00 in0.0 mm 0.17 in4.3 mm
10:49 PM 48.6°F9.2°C 47.5°F8.6°C 96% 11.0 mph S17.7 kmh S 15.0 mph24.1 kmh 29.47 in998.0 mb 0.00 in0.0 mm 0.00 in0.0 mm 0.18 in4.6 mm
10:54 PM 48.6°F9.2°C 47.5°F8.6°C 96% 11.0 mph S17.7 kmh S 17.0 mph27.4 kmh 29.46 in997.6 mb 0.00 in0.0 mm 0.00 in0.0 mm 0.18 in4.6 mm
10:59 PM 48.6°F9.2°C 47.5°F8.6°C 96% 10.0 mph SSW16.1 kmh SSW 14.0 mph22.5 kmh 29.45 in997.3 mb 0.00 in0.0 mm 0.00 in0.0 mm 0.19 in4.8 mm
11:04 PM 48.6°F9.2°C 47.5°F8.6°C 96% 9.0 mph S14.5 kmh S 12.0 mph19.3 kmh 29.45 in997.3 mb 0.00 in0.0 mm 0.00 in0.0 mm 0.19 in4.8 mm
11:09 PM 48.6°F9.2°C 47.5°F8.6°C 96% 9.0 mph SSE14.5 kmh SSE 11.0 mph17.7 kmh 29.44 in997.0 mb 0.00 in0.0 mm 0.00 in0.0 mm 0.19 in4.8 mm
11:14 PM 48.4°F9.1°C 47.3°F8.5°C 96% 10.0 mph SSE16.1 kmh SSE 14.0 mph22.5 kmh 29.44 in997.0 mb 0.00 in0.0 mm 0.00 in0.0 mm 0.19 in4.8 mm
11:19 PM 48.4°F9.1°C 47.3°F8.5°C 96% 13.0 mph S20.9 kmh S 20.0 mph32.2 kmh 29.44 in997.0 mb 0.00 in0.0 mm 0.00 in0.0 mm 0.20 in5.1 mm
11:24 PM 48.4°F9.1°C 47.3°F8.5°C 96% 11.0 mph S17.7 kmh S 18.0 mph29.0 kmh 29.43 in996.6 mb 0.00 in0.0 mm 0.00 in0.0 mm 0.21 in5.3 mm
11:29 PM 48.4°F9.1°C 47.3°F8.5°C 96% 10.0 mph S16.1 kmh S 17.0 mph27.4 kmh 29.43 in996.6 mb 0.01 in0.3 mm 0.10 in2.5 mm 0.21 in5.3 mm
11:34 PM 48.6°F9.2°C 47.5°F8.6°C 96% 10.0 mph SSW16.1 kmh SSW 14.0 mph22.5 kmh 29.42 in996.3 mb 0.00 in0.0 mm 0.00 in0.0 mm 0.21 in5.3 mm
11:39 PM 48.6°F9.2°C 47.5°F8.6°C 96% 10.0 mph S16.1 kmh S 13.0 mph20.9 kmh 29.41 in995.9 mb 0.00 in0.0 mm 0.00 in0.0 mm 0.22 in5.6 mm
11:44 PM 48.6°F9.2°C 47.5°F8.6°C 96% 11.0 mph S17.7 kmh S 16.0 mph25.7 kmh 29.40 in995.6 mb 0.00 in0.0 mm 0.00 in0.0 mm 0.23 in5.8 mm
11:49 PM 48.4°F9.1°C 47.3°F8.5°C 96% 10.0 mph S16.1 kmh S 17.0 mph27.4 kmh 29.40 in995.6 mb 0.00 in0.0 mm 0.00 in0.0 mm 0.24 in6.1 mm
11:54 PM 48.4°F9.1°C 47.3°F8.5°C 96% 10.0 mph S16.1 kmh S 16.0 mph25.7 kmh 29.39 in995.3 mb 0.01 in0.3 mm 0.10 in2.5 mm 0.25 in6.4 mm
11:59 PM 48.4°F9.1°C 47.3°F8.5°C 96% 12.0 mph S19.3 kmh S 16.0 mph25.7 kmh 29.38 in994.9 mb 0.00 in0.0 mm 0.00 in0.0 mm 0.26 in6.6 mm